Time;durP1;ratioP1;P1;durP2;ratioP2;P2;SDS_P1;SDS_P2;PMS_P1;PMS_P2;Temp;Humidity;BMP_temperature;BMP_pressure;BME280_temperature;BME280_humidity;BME280_pressure;Samples;Min_cycle;Max_cycle;Signal;HPM_P1;HPM_P2
2023/04/19 00:00:18;;;;;;;2.97;2.03;;;8.10;99.90;;;;;;5003297;28;20099;-74
2023/04/19 00:02:44;;;;;;;3.00;2.15;;;8.10;99.90;;;;;;5002757;28;20959;-74
2023/04/19 00:05:12;;;;;;;2.60;2.40;;;8.10;99.90;;;;;;5003939;28;20046;-74
2023/04/19 00:07:38;;;;;;;3.35;1.95;;;8.10;99.90;;;;;;5004279;28;20385;-73
2023/04/19 00:10:04;;;;;;;4.22;3.50;;;8.00;99.90;;;;;;5004055;28;20050;-74
2023/04/19 00:12:29;;;;;;;3.35;2.60;;;8.00;99.90;;;;;;5004007;28;20049;-74
2023/04/19 00:14:55;;;;;;;3.22;1.60;;;8.00;99.90;;;;;;5003276;28;20046;-74
2023/04/19 00:17:21;;;;;;;3.17;1.67;;;8.00;99.90;;;;;;5004633;28;20448;-74
2023/04/19 00:19:47;;;;;;;4.13;1.88;;;8.00;99.90;;;;;;5003786;28;20057;-74
2023/04/19 00:22:12;;;;;;;1.83;1.23;;;8.00;99.90;;;;;;5003449;28;20046;-74
2023/04/19 00:24:38;;;;;;;2.72;1.77;;;8.00;99.90;;;;;;5002747;28;20642;-74
2023/04/19 00:27:03;;;;;;;3.70;2.85;;;7.90;99.90;;;;;;4986335;28;20108;-74
2023/04/19 00:29:29;;;;;;;2.90;2.20;;;7.90;99.90;;;;;;5001160;28;20397;-74
2023/04/19 00:31:55;;;;;;;2.13;1.90;;;7.90;99.90;;;;;;5002849;28;20042;-74
2023/04/19 00:34:20;;;;;;;4.97;2.15;;;7.90;99.90;;;;;;5004411;28;20490;-74
2023/04/19 00:36:46;;;;;;;3.92;2.05;;;7.90;99.90;;;;;;5003325;28;20038;-74
2023/04/19 00:39:11;;;;;;;4.07;2.53;;;7.90;99.90;;;;;;5002893;28;20129;-74
2023/04/19 00:41:37;;;;;;;2.30;1.80;;;7.90;99.90;;;;;;5003635;28;20046;-74
2023/04/19 00:44:03;;;;;;;2.90;2.65;;;7.80;99.90;;;;;;5003097;28;20382;-74
2023/04/19 00:46:28;;;;;;;3.22;2.92;;;7.80;99.90;;;;;;4985799;28;20100;-74
2023/04/19 00:48:54;;;;;;;3.95;3.50;;;7.80;99.90;;;;;;4986897;28;20054;-74
2023/04/19 00:51:20;;;;;;;5.72;2.80;;;7.80;99.90;;;;;;4984467;28;20077;-74
2023/04/19 00:53:46;;;;;;;2.00;1.90;;;7.80;99.90;;;;;;4983797;28;20093;-74
2023/04/19 00:56:13;;;;;;;2.97;2.72;;;7.80;99.90;;;;;;4984201;28;20038;-74
2023/04/19 00:58:40;;;;;;;2.47;2.13;;;7.80;99.90;;;;;;4981840;28;20068;-74
2023/04/19 01:01:05;;;;;;;4.05;2.50;;;7.70;99.90;;;;;;4983950;28;20069;-74
2023/04/19 01:03:31;;;;;;;4.13;2.65;;;7.70;99.90;;;;;;5076300;23;20065;-74
2023/04/19 01:05:57;;;;;;;2.28;2.05;;;7.70;99.90;;;;;;5003752;28;20492;-74
2023/04/19 01:08:23;;;;;;;2.55;2.28;;;7.70;99.90;;;;;;5004120;28;20057;-74
2023/04/19 01:10:48;;;;;;;1.98;1.83;;;7.70;99.90;;;;;;5003202;28;20034;-74
2023/04/19 01:13:14;;;;;;;2.83;1.52;;;7.70;99.90;;;;;;5002981;28;20456;-74
2023/04/19 01:15:40;;;;;;;1.90;1.52;;;7.70;99.90;;;;;;5003635;28;20065;-74
2023/04/19 01:18:05;;;;;;;4.00;2.15;;;7.60;99.90;;;;;;5003534;28;20151;-74
2023/04/19 01:20:31;;;;;;;1.83;1.50;;;7.60;99.90;;;;;;5003336;28;20606;-74
2023/04/19 01:22:56;;;;;;;3.28;2.25;;;7.60;99.90;;;;;;5003958;28;20060;-74
2023/04/19 01:25:23;;;;;;;3.47;1.90;;;7.60;99.90;;;;;;5003662;28;20042;-74
2023/04/19 01:27:48;;;;;;;4.28;2.90;;;7.60;99.90;;;;;;5002358;28;20502;-74
2023/04/19 01:30:14;;;;;;;5.82;4.00;;;7.60;99.90;;;;;;5001364;28;20189;-74
2023/04/19 01:32:40;;;;;;;5.30;2.63;;;7.60;99.90;;;;;;5004355;28;20081;-74
2023/04/19 01:35:06;;;;;;;1.50;1.40;;;7.60;99.90;;;;;;5007061;28;20050;-74
2023/04/19 01:37:34;;;;;;;4.07;3.35;;;7.60;99.90;;;;;;5006986;28;20515;-74
2023/04/19 01:40:00;;;;;;;2.47;2.28;;;7.50;99.90;;;;;;5005498;28;20077;-73
2023/04/19 01:42:26;;;;;;;3.63;2.92;;;7.50;99.90;;;;;;5005462;28;20077;-74
2023/04/19 01:44:51;;;;;;;3.35;2.55;;;7.50;99.90;;;;;;5005078;28;20507;-73
2023/04/19 01:47:17;;;;;;;5.00;2.50;;;7.50;99.90;;;;;;5005648;28;20050;-73
2023/04/19 01:49:42;;;;;;;3.67;2.22;;;7.50;99.90;;;;;;5006450;28;20049;-74
2023/04/19 01:52:08;;;;;;;6.15;3.47;;;7.50;99.90;;;;;;5006916;28;20074;-73
2023/04/19 01:54:33;;;;;;;5.22;2.25;;;7.50;99.90;;;;;;5006751;28;20053;-73
2023/04/19 01:57:00;;;;;;;3.67;3.38;;;7.50;99.90;;;;;;5006531;28;20117;-73
2023/04/19 01:59:25;;;;;;;4.53;3.47;;;7.40;99.90;;;;;;5004556;28;20064;-73
2023/04/19 02:01:51;;;;;;;3.42;3.08;;;7.50;99.90;;;;;;5006182;28;20034;-73
2023/04/19 02:04:19;;;;;;;4.63;2.20;;;7.40;99.90;;;;;;5006593;28;20058;-73
2023/04/19 02:06:45;;;;;;;4.30;2.72;;;7.40;99.90;;;;;;5006120;28;20558;-73
2023/04/19 02:09:10;;;;;;;4.28;2.92;;;7.40;99.90;;;;;;5006667;28;20054;-73
2023/04/19 02:11:36;;;;;;;4.55;2.80;;;7.40;99.90;;;;;;5004866;28;20492;-74
2023/04/19 02:14:01;;;;;;;3.33;2.70;;;7.40;99.90;;;;;;5005345;28;20436;-74
2023/04/19 02:16:28;;;;;;;3.33;2.72;;;7.40;99.90;;;;;;5004687;28;20076;-74
2023/04/19 02:18:53;;;;;;;3.25;2.92;;;7.40;99.90;;;;;;5006912;28;20049;-73
2023/04/19 02:21:19;;;;;;;5.45;3.35;;;7.40;99.90;;;;;;5005994;28;20041;-73
2023/04/19 02:23:44;;;;;;;4.32;3.80;;;7.40;99.90;;;;;;5004805;28;20137;-74
2023/04/19 02:26:10;;;;;;;5.40;3.78;;;7.30;99.90;;;;;;5006165;28;20107;-73
2023/04/19 02:28:37;;;;;;;4.60;4.22;;;7.30;99.90;;;;;;5004656;28;20455;-73
2023/04/19 02:31:05;;;;;;;4.93;3.88;;;7.30;99.90;;;;;;5005770;28;20049;-73
2023/04/19 02:33:31;;;;;;;4.97;4.43;;;7.30;99.90;;;;;;5005791;28;20054;-73
2023/04/19 02:35:56;;;;;;;5.22;3.17;;;7.30;99.90;;;;;;5006107;28;20054;-73
2023/04/19 02:38:22;;;;;;;4.53;2.85;;;7.30;99.90;;;;;;5006488;28;20033;-73
2023/04/19 02:40:48;;;;;;;9.07;3.97;;;7.30;99.90;;;;;;5004577;28;20050;-74
2023/04/19 02:43:13;;;;;;;6.43;5.43;;;7.30;99.90;;;;;;5004691;28;20046;-72
2023/04/19 02:45:39;;;;;;;5.65;3.70;;;7.20;99.90;;;;;;5004675;28;20052;-72
2023/04/19 02:48:05;;;;;;;5.38;3.35;;;7.20;99.90;;;;;;5005831;28;20100;-74
2023/04/19 02:50:31;;;;;;;5.88;3.70;;;7.20;99.90;;;;;;5004552;28;20525;-73
2023/04/19 02:52:57;;;;;;;4.03;3.10;;;7.20;99.90;;;;;;5005341;28;20062;-74
2023/04/19 02:55:23;;;;;;;7.20;3.20;;;7.20;99.90;;;;;;5004757;28;20045;-74
2023/04/19 02:57:49;;;;;;;4.93;3.92;;;7.20;99.90;;;;;;5005213;28;20073;-74
2023/04/19 03:00:15;;;;;;;3.15;2.95;;;7.20;99.90;;;;;;5003073;28;20099;-74
2023/04/19 03:02:42;;;;;;;4.15;2.65;;;7.20;99.90;;;;;;5005166;28;20068;-73
2023/04/19 03:05:09;;;;;;;6.35;4.43;;;7.20;99.90;;;;;;5005633;28;20077;-74
2023/04/19 03:07:35;;;;;;;4.85;2.95;;;7.10;99.90;;;;;;5005240;28;20048;-74
2023/04/19 03:10:01;;;;;;;6.28;3.38;;;7.10;99.90;;;;;;5005313;28;20081;-74
2023/04/19 03:12:26;;;;;;;5.15;3.17;;;7.10;99.90;;;;;;5003486;28;20100;-74
2023/04/19 03:14:52;;;;;;;11.13;4.95;;;7.10;99.90;;;;;;5004527;28;20041;-73
2023/04/19 03:17:17;;;;;;;5.20;3.72;;;7.10;99.90;;;;;;5004018;28;20045;-73
2023/04/19 03:19:43;;;;;;;7.10;3.90;;;7.00;99.90;;;;;;5003558;28;20084;-73
2023/04/19 03:22:09;;;;;;;7.85;4.07;;;7.00;99.90;;;;;;5005035;28;20479;-73
2023/04/19 03:24:34;;;;;;;7.25;3.70;;;7.00;99.90;;;;;;5003472;28;20050;-73
2023/04/19 03:27:01;;;;;;;6.38;3.70;;;7.00;99.90;;;;;;4987204;28;20044;-73
2023/04/19 03:29:27;;;;;;;5.50;3.70;;;7.00;99.90;;;;;;5002176;28;20500;-73
2023/04/19 03:31:52;;;;;;;3.00;2.78;;;7.00;99.90;;;;;;5005379;28;20034;-74
2023/04/19 03:34:18;;;;;;;4.35;3.85;;;7.00;99.90;;;;;;5004820;28;20080;-73
2023/04/19 03:36:43;;;;;;;4.72;3.13;;;6.90;99.90;;;;;;5004712;28;20044;-73
2023/04/19 03:39:09;;;;;;;11.85;3.45;;;6.90;99.90;;;;;;5004890;28;20045;-73
2023/04/19 03:41:35;;;;;;;3.00;2.80;;;6.90;99.90;;;;;;5003985;28;20042;-74
2023/04/19 03:44:00;;;;;;;3.58;3.17;;;6.90;99.90;;;;;;5003814;28;20253;-74
2023/04/19 03:46:30;;;;;;;3.13;2.35;;;6.90;99.90;;;;;;5004712;28;20049;-74
2023/04/19 03:48:56;;;;;;;3.25;2.80;;;6.80;99.90;;;;;;5004320;28;20096;-73
2023/04/19 03:51:21;;;;;;;4.10;3.00;;;6.80;99.90;;;;;;5005155;28;20038;-73
2023/04/19 03:53:47;;;;;;;2.92;2.15;;;6.80;99.90;;;;;;5004301;28;20042;-73
2023/04/19 03:56:12;;;;;;;2.78;2.45;;;6.80;99.90;;;;;;5004268;28;20439;-74
2023/04/19 03:58:38;;;;;;;3.92;3.50;;;6.70;99.90;;;;;;5003527;28;20064;-73
2023/04/19 04:01:05;;;;;;;3.00;2.80;;;6.70;99.90;;;;;;5004380;28;20428;-73
2023/04/19 04:03:31;;;;;;;5.53;2.88;;;6.70;99.90;;;;;;5003737;28;20053;-73
2023/04/19 04:05:57;;;;;;;2.70;2.42;;;6.70;99.90;;;;;;5004730;28;20046;-73
2023/04/19 04:08:22;;;;;;;2.58;2.17;;;6.70;99.90;;;;;;4986965;28;20548;-73
2023/04/19 04:10:48;;;;;;;3.67;3.38;;;6.60;99.90;;;;;;5002687;28;20562;-74
2023/04/19 04:13:14;;;;;;;7.10;3.67;;;6.60;99.90;;;;;;5003163;28;20057;-73
2023/04/19 04:15:39;;;;;;;5.03;3.08;;;6.60;99.90;;;;;;5003949;28;20050;-73
2023/04/19 04:18:05;;;;;;;4.80;3.45;;;6.60;99.90;;;;;;5002830;28;20670;-74
2023/04/19 04:20:30;;;;;;;2.90;2.63;;;6.60;99.90;;;;;;5003577;28;20052;-73
2023/04/19 04:22:56;;;;;;;3.15;2.90;;;6.50;99.90;;;;;;4986614;28;20096;-73
2023/04/19 04:25:22;;;;;;;3.90;3.60;;;6.50;99.90;;;;;;5004704;28;20081;-73
2023/04/19 04:27:50;;;;;;;4.90;3.75;;;6.50;99.90;;;;;;5002802;28;20052;-74
2023/04/19 04:30:16;;;;;;;5.18;3.40;;;6.50;99.90;;;;;;5002595;28;20598;-74
2023/04/19 04:32:42;;;;;;;3.53;3.10;;;6.50;99.90;;;;;;5003889;28;20046;-73
2023/04/19 04:35:09;;;;;;;3.53;3.15;;;6.40;99.90;;;;;;5002629;28;20562;-74
2023/04/19 04:37:35;;;;;;;3.85;2.20;;;6.40;99.90;;;;;;5003401;28;20050;-74
2023/04/19 04:40:05;;;;;;;3.30;2.47;;;6.40;99.90;;;;;;5004214;28;20093;-73
2023/04/19 04:42:31;;;;;;;3.13;2.90;;;6.40;99.90;;;;;;5002662;28;20440;-74
2023/04/19 04:44:57;;;;;;;3.30;2.50;;;6.40;99.90;;;;;;5002953;28;20092;-73
2023/04/19 04:47:23;;;;;;;4.18;2.35;;;6.40;99.90;;;;;;5004306;28;20033;-73
2023/04/19 04:49:49;;;;;;;3.78;3.35;;;6.40;99.90;;;;;;5002272;28;20041;-74
2023/04/19 04:52:16;;;;;;;4.18;3.72;;;6.40;99.90;;;;;;5001784;28;20053;-73
2023/04/19 04:54:41;;;;;;;3.10;2.90;;;6.30;99.90;;;;;;5003607;28;20052;-75
2023/04/19 04:57:07;;;;;;;2.83;2.63;;;6.30;99.90;;;;;;5018993;28;20050;-75
2023/04/19 04:59:33;;;;;;;2.90;2.45;;;6.30;99.90;;;;;;5002419;28;20049;-74
2023/04/19 05:01:58;;;;;;;2.22;2.03;;;6.30;99.90;;;;;;5002283;28;20041;-74
2023/04/19 05:04:24;;;;;;;3.17;2.67;;;6.30;99.90;;;;;;5004358;28;20053;-74
2023/04/19 05:06:49;;;;;;;4.30;3.15;;;6.30;99.90;;;;;;5004256;28;20129;-74
2023/04/19 05:09:15;;;;;;;3.60;3.30;;;6.30;99.90;;;;;;5007327;28;20499;-74
2023/04/19 05:11:41;;;;;;;4.18;2.55;;;6.30;99.90;;;;;;5007246;28;20107;-74
2023/04/19 05:14:06;;;;;;;2.55;2.17;;;6.30;99.90;;;;;;5005420;28;20104;-74
2023/04/19 05:16:32;;;;;;;5.80;2.85;;;6.30;99.90;;;;;;5006921;28;20120;-74
2023/04/19 05:18:58;;;;;;;3.33;2.05;;;6.30;99.90;;;;;;5007398;28;20053;-74
2023/04/19 05:21:23;;;;;;;1.67;1.58;;;6.30;99.90;;;;;;5006718;28;20321;-74
2023/04/19 05:23:52;;;;;;;5.43;2.75;;;6.30;99.90;;;;;;5006613;28;20049;-73
2023/04/19 05:26:18;;;;;;;3.60;2.85;;;6.30;99.90;;;;;;5007182;28;20053;-73
2023/04/19 05:28:44;;;;;;;2.72;2.53;;;6.30;99.90;;;;;;5006199;28;20054;-74
2023/04/19 05:31:10;;;;;;;6.07;2.80;;;6.30;99.90;;;;;;5007010;28;20050;-74
2023/04/19 05:33:36;;;;;;;3.63;2.92;;;6.30;99.90;;;;;;5006850;28;20128;-74
2023/04/19 05:36:02;;;;;;;2.25;2.08;;;6.30;99.90;;;;;;5006324;28;20129;-74
2023/04/19 05:38:27;;;;;;;2.25;1.85;;;6.30;99.90;;;;;;5005264;28;20037;-74
2023/04/19 05:40:53;;;;;;;2.17;1.88;;;6.30;99.90;;;;;;5007048;28;20404;-73
2023/04/19 05:43:18;;;;;;;2.50;1.88;;;6.40;99.90;;;;;;5005144;28;20046;-74
2023/04/19 05:45:44;;;;;;;1.98;1.88;;;6.40;99.90;;;;;;5006992;28;20492;-73
2023/04/19 05:48:09;;;;;;;3.90;2.08;;;6.40;99.90;;;;;;5005466;28;20057;-73
2023/04/19 05:50:35;;;;;;;1.73;1.63;;;6.40;99.90;;;;;;5005648;28;20038;-73
2023/04/19 05:53:02;;;;;;;2.65;2.45;;;6.40;99.90;;;;;;5006486;28;20569;-72
2023/04/19 05:55:27;;;;;;;5.45;2.88;;;6.40;99.90;;;;;;5004942;28;20068;-72
2023/04/19 05:57:53;;;;;;;2.35;1.50;;;6.50;99.90;;;;;;5005739;28;20040;-72
2023/04/19 06:00:19;;;;;;;2.22;2.03;;;6.50;99.90;;;;;;5005500;28;20050;-72
2023/04/19 06:02:44;;;;;;;2.10;1.60;;;6.50;99.90;;;;;;5003490;28;20042;-73
2023/04/19 06:05:10;;;;;;;2.47;2.38;;;6.60;99.90;;;;;;5006656;28;20053;-73
2023/04/19 06:07:35;;;;;;;6.72;2.40;;;6.60;99.90;;;;;;5005985;28;20042;-73
2023/04/19 06:10:01;;;;;;;2.58;2.38;;;6.60;99.90;;;;;;5005326;28;20107;-74
2023/04/19 06:12:27;;;;;;;3.33;2.92;;;6.60;99.90;;;;;;5005217;28;20045;-74
2023/04/19 06:14:52;;;;;;;3.08;1.88;;;6.60;99.90;;;;;;5006331;28;20553;-71
2023/04/19 06:17:23;;;;;;;1.42;1.08;;;6.70;99.90;;;;;;5004416;28;20108;-71
2023/04/19 06:19:49;;;;;;;2.20;2.00;;;6.70;99.90;;;;;;5004017;28;20038;-72
2023/04/19 06:22:15;;;;;;;1.58;1.48;;;6.70;99.90;;;;;;5005565;28;20133;-72
2023/04/19 06:24:42;;;;;;;1.52;1.10;;;6.80;99.90;;;;;;5005390;28;20125;-72
2023/04/19 06:27:08;;;;;;;4.63;1.30;;;6.80;99.90;;;;;;5005542;28;20531;-75
2023/04/19 06:29:34;;;;;;;2.78;1.48;;;6.80;99.90;;;;;;5003924;28;20073;-75
2023/04/19 06:31:59;;;;;;;1.52;1.45;;;6.90;99.90;;;;;;5005443;28;20049;-75
2023/04/19 06:34:25;;;;;;;2.50;1.77;;;6.90;99.90;;;;;;5005436;28;20049;-74
2023/04/19 06:36:50;;;;;;;3.90;2.15;;;6.90;99.90;;;;;;5004498;28;20128;-75
2023/04/19 06:39:16;;;;;;;1.63;1.58;;;7.00;99.90;;;;;;5005731;28;20046;-75
2023/04/19 06:41:42;;;;;;;2.22;1.50;;;7.00;99.90;;;;;;5004193;28;20492;-74
2023/04/19 06:44:07;;;;;;;1.23;1.08;;;7.00;99.90;;;;;;5003682;28;20070;-74
2023/04/19 06:46:33;;;;;;;1.83;1.50;;;7.10;99.90;;;;;;5004232;28;20042;-75
2023/04/19 06:48:59;;;;;;;2.17;1.30;;;7.10;99.90;;;;;;5003893;28;20376;-74
2023/04/19 06:51:24;;;;;;;1.60;1.45;;;7.10;99.90;;;;;;5005132;28;20125;-75
2023/04/19 06:53:50;;;;;;;3.75;1.92;;;7.20;99.90;;;;;;5005154;28;20066;-75
2023/04/19 06:56:16;;;;;;;2.17;1.90;;;7.20;99.90;;;;;;5004770;28;20045;-74
2023/04/19 06:58:41;;;;;;;2.65;2.10;;;7.20;99.90;;;;;;5018298;28;20547;-74
2023/04/19 07:01:07;;;;;;;3.38;1.65;;;7.30;99.90;;;;;;5002634;28;20087;-75
2023/04/19 07:03:32;;;;;;;2.30;1.75;;;7.30;99.90;;;;;;5003925;28;20286;-74
2023/04/19 07:05:58;;;;;;;1.77;1.58;;;7.30;99.90;;;;;;5004250;28;20058;-74
2023/04/19 07:08:26;;;;;;;2.15;1.20;;;7.30;99.90;;;;;;5003076;28;20076;-74
2023/04/19 07:10:52;;;;;;;4.00;1.88;;;7.40;99.90;;;;;;5005100;28;20158;-73
2023/04/19 07:13:17;;;;;;;3.10;1.55;;;7.50;99.90;;;;;;5002972;28;20042;-73
2023/04/19 07:15:43;;;;;;;1.75;1.65;;;7.50;99.90;;;;;;5004122;28;20041;-72
2023/04/19 07:18:10;;;;;;;3.10;1.30;;;7.50;99.90;;;;;;5019724;28;20519;-73
2023/04/19 07:20:35;;;;;;;2.78;2.15;;;7.50;99.90;;;;;;5002781;28;20089;-73
2023/04/19 07:23:01;;;;;;;2.30;1.33;;;7.60;99.90;;;;;;5004059;28;20077;-73
2023/04/19 07:25:27;;;;;;;2.15;1.23;;;7.60;99.90;;;;;;5003320;28;20046;-72
2023/04/19 07:27:53;;;;;;;1.75;1.20;;;7.70;99.90;;;;;;5003188;28;20049;-73
2023/04/19 07:30:19;;;;;;;1.70;1.60;;;7.70;99.90;;;;;;5003567;28;20049;-73
2023/04/19 07:32:45;;;;;;;1.40;1.15;;;7.70;99.90;;;;;;5003627;28;20050;-73
2023/04/19 07:35:11;;;;;;;2.45;1.58;;;7.80;99.90;;;;;;5004026;28;20053;-72
2023/04/19 07:37:36;;;;;;;2.35;1.85;;;7.80;99.90;;;;;;5003430;28;21181;-73
2023/04/19 07:40:04;;;;;;;1.95;1.45;;;7.80;99.90;;;;;;5004185;28;20480;-74
2023/04/19 07:42:29;;;;;;;1.45;1.00;;;7.90;99.90;;;;;;5002070;28;20512;-75
2023/04/19 07:44:55;;;;;;;1.83;1.73;;;8.00;99.90;;;;;;5003972;28;20073;-75
2023/04/19 07:47:27;;;;;;;3.22;1.50;;;8.00;99.90;;;;;;5003603;28;20057;-74
2023/04/19 07:49:54;;;;;;;0.98;0.98;;;8.00;99.90;;;;;;5003725;28;20038;-74
2023/04/19 07:52:20;;;;;;;1.35;0.73;;;8.10;99.90;;;;;;5019912;28;20476;-74
2023/04/19 07:54:46;;;;;;;1.35;0.95;;;8.10;99.90;;;;;;5006399;28;20056;-74
2023/04/19 07:57:11;;;;;;;2.92;1.02;;;8.20;99.90;;;;;;5004031;28;20046;-73
2023/04/19 07:59:37;;;;;;;0.93;0.77;;;8.20;99.90;;;;;;5020096;28;20045;-73
2023/04/19 08:02:02;;;;;;;1.55;0.90;;;8.30;99.90;;;;;;5017823;28;20037;-75
2023/04/19 08:04:28;;;;;;;0.60;0.60;;;8.30;99.90;;;;;;5017006;28;20049;-74
2023/04/19 08:06:54;;;;;;;1.60;1.10;;;8.40;99.90;;;;;;5008718;28;20041;-74
2023/04/19 08:09:19;;;;;;;1.02;0.93;;;8.40;99.90;;;;;;5005933;28;20456;-73
2023/04/19 08:11:45;;;;;;;1.42;1.33;;;8.40;99.90;;;;;;5001189;28;20073;-74
2023/04/19 08:14:11;;;;;;;1.10;0.95;;;8.50;99.90;;;;;;5003182;28;20050;-74
2023/04/19 08:16:36;;;;;;;0.70;0.70;;;8.60;99.90;;;;;;5002231;28;20475;-74
2023/04/19 08:19:02;;;;;;;0.90;0.70;;;8.50;99.90;;;;;;5003357;28;20038;-74
2023/04/19 08:21:27;;;;;;;1.15;0.93;;;8.60;99.90;;;;;;5002770;28;20030;-74
2023/04/19 08:23:53;;;;;;;2.10;1.50;;;8.60;99.90;;;;;;5003675;28;20042;-73
2023/04/19 08:26:18;;;;;;;1.33;1.20;;;8.70;99.90;;;;;;5003607;28;20046;-74
2023/04/19 08:28:44;;;;;;;0.98;0.90;;;8.70;99.90;;;;;;5001770;28;20073;-74
2023/04/19 08:31:10;;;;;;;1.50;1.05;;;8.80;99.90;;;;;;5018100;28;20045;-73
2023/04/19 08:33:35;;;;;;;1.00;0.80;;;8.80;99.90;;;;;;5002725;28;20072;-73
2023/04/19 08:36:01;;;;;;;1.95;1.45;;;8.80;99.90;;;;;;5002808;28;20034;-73
2023/04/19 08:38:26;;;;;;;1.65;0.73;;;8.90;99.90;;;;;;5002186;28;20046;-73
2023/04/19 08:40:56;;;;;;;0.77;0.70;;;8.90;99.90;;;;;;5001597;28;20543;-73
2023/04/19 08:43:24;;;;;;;0.85;0.65;;;8.90;99.90;;;;;;5004850;28;20222;-74
2023/04/19 08:45:50;;;;;;;1.42;1.23;;;9.00;99.90;;;;;;5006236;28;20042;-74
2023/04/19 08:48:16;;;;;;;0.85;0.63;;;9.00;99.90;;;;;;5021838;28;20084;-74
2023/04/19 08:50:44;;;;;;;3.80;1.00;;;9.10;99.90;;;;;;5006617;28;20140;-75
2023/04/19 08:53:10;;;;;;;0.70;0.60;;;9.10;99.90;;;;;;5007162;28;20048;-73
2023/04/19 08:55:37;;;;;;;1.27;1.17;;;9.10;99.90;;;;;;5007009;28;20042;-74
2023/04/19 08:58:03;;;;;;;1.17;0.80;;;9.20;99.90;;;;;;5005334;28;20472;-74
2023/04/19 09:00:31;;;;;;;1.45;1.30;;;9.20;99.90;;;;;;5005268;28;20045;-74
2023/04/19 09:02:57;;;;;;;2.72;1.05;;;9.30;99.90;;;;;;5007810;28;20049;-76
2023/04/19 09:05:24;;;;;;;1.05;1.05;;;9.30;99.90;;;;;;5007508;28;20133;-74
2023/04/19 09:07:50;;;;;;;1.52;0.77;;;9.30;99.90;;;;;;5006799;28;20262;-74
2023/04/19 09:10:17;;;;;;;0.70;0.70;;;9.40;99.90;;;;;;5005147;28;20240;-73
2023/04/19 09:13:02;;;;;;;2.13;0.95;;;9.50;99.90;;;;;;5005597;28;20056;-75
2023/04/19 09:15:38;;;;;;;1.17;0.95;;;9.50;99.90;;;;;;5004469;28;20104;-74
2023/04/19 09:18:09;;;;;;;2.33;0.68;;;9.50;99.90;;;;;;5007504;28;20132;-75
2023/04/19 09:20:36;;;;;;;1.38;0.90;;;9.60;99.90;;;;;;5004633;28;20042;-74
2023/04/19 09:23:03;;;;;;;1.50;0.70;;;9.60;99.90;;;;;;5005790;28;20416;-75
2023/04/19 09:25:29;;;;;;;0.93;0.88;;;9.70;99.90;;;;;;5006683;28;20401;-74
2023/04/19 09:28:11;;;;;;;1.05;0.73;;;9.70;99.90;;;;;;4984128;28;20045;-74
2023/04/19 09:30:37;;;;;;;0.82;0.63;;;9.70;99.90;;;;;;5006205;28;20590;-74
2023/04/19 09:33:03;;;;;;;2.88;0.80;;;9.80;99.90;;;;;;5017545;28;20029;-75
2023/04/19 09:35:48;;;;;;;0.75;0.63;;;9.80;99.90;;;;;;5006513;28;20100;-73
2023/04/19 09:38:15;;;;;;;1.27;0.95;;;9.90;99.90;;;;;;5010341;28;20049;-74
2023/04/19 09:40:41;;;;;;;1.08;0.50;;;9.90;99.90;;;;;;5006275;28;20034;-74
2023/04/19 09:43:06;;;;;;;0.90;0.90;;;10.00;99.90;;;;;;5004211;28;20069;-74
2023/04/19 09:45:43;;;;;;;0.77;0.77;;;10.00;99.90;;;;;;5004623;28;20068;-73
2023/04/19 09:48:10;;;;;;;1.23;0.50;;;10.00;99.90;;;;;;5006813;28;20044;-75
2023/04/19 09:50:50;;;;;;;1.10;0.95;;;10.10;99.90;;;;;;5003088;28;20100;-75
2023/04/19 09:53:17;;;;;;;3.08;1.73;;;10.20;99.90;;;;;;5004363;28;20052;-74
2023/04/19 09:55:45;;;;;;;0.60;0.60;;;10.20;99.90;;;;;;5004702;28;20111;-74
2023/04/19 09:58:11;;;;;;;1.05;0.55;;;10.20;99.90;;;;;;5004458;28;20124;-74
2023/04/19 10:00:38;;;;;;;1.80;1.05;;;10.20;99.90;;;;;;5002625;28;20069;-74
2023/04/19 10:03:05;;;;;;;0.73;0.50;;;10.30;99.90;;;;;;5005039;28;20041;-75
2023/04/19 10:05:31;;;;;;;0.82;0.82;;;10.30;99.90;;;;;;5004306;28;20334;-75
2023/04/19 10:08:00;;;;;;;0.82;0.68;;;10.40;99.90;;;;;;5004632;28;20038;-76
2023/04/19 10:10:28;;;;;;;0.68;0.50;;;10.40;99.90;;;;;;5004610;28;20057;-76
2023/04/19 10:12:55;;;;;;;2.33;0.68;;;10.40;99.90;;;;;;5004593;28;20045;-77
2023/04/19 10:15:22;;;;;;;0.40;0.40;;;10.50;99.90;;;;;;5010010;28;20041;-75
2023/04/19 10:17:48;;;;;;;1.77;0.80;;;10.50;99.90;;;;;;5004446;28;20049;-74
2023/04/19 10:20:22;;;;;;;1.52;0.77;;;10.60;99.90;;;;;;5015593;28;20037;-73
2023/04/19 10:22:48;;;;;;;1.30;0.90;;;10.60;99.90;;;;;;5024910;28;20038;-75
2023/04/19 10:25:15;;;;;;;0.25;0.25;;;10.70;99.90;;;;;;5024626;28;20042;-77
2023/04/19 10:27:44;;;;;;;1.52;1.05;;;10.70;99.90;;;;;;4995910;28;20049;-74
2023/04/19 10:30:21;;;;;;;0.90;0.60;;;10.80;99.90;;;;;;5018640;28;20058;-73
2023/04/19 10:32:52;;;;;;;1.48;0.60;;;10.80;99.90;;;;;;5002705;28;20132;-76
2023/04/19 10:35:23;;;;;;;2.55;0.77;;;10.80;99.90;;;;;;5001946;28;20050;-74
2023/04/19 10:38:11;;;;;;;0.80;0.80;;;10.90;99.90;;;;;;5002536;28;20045;-74
2023/04/19 10:41:02;;;;;;;0.73;0.55;;;11.00;99.90;;;;;;5002594;28;20049;-75
2023/04/19 10:43:33;;;;;;;1.20;0.70;;;11.00;99.90;;;;;;5003529;28;20039;-76
2023/04/19 10:46:07;;;;;;;1.83;1.48;;;11.00;99.90;;;;;;5003763;28;20038;-76
2023/04/19 10:48:36;;;;;;;0.80;0.70;;;11.00;99.90;;;;;;5003349;28;20041;-75
2023/04/19 10:51:18;;;;;;;0.70;0.65;;;11.00;99.90;;;;;;4985328;28;20052;-75
2023/04/19 10:53:59;;;;;;;3.17;1.00;;;11.10;99.90;;;;;;4999531;28;20046;-75
2023/04/19 10:56:34;;;;;;;3.43;0.80;;;11.10;99.90;;;;;;4993022;28;20125;-76
2023/04/19 10:59:12;;;;;;;1.50;0.90;;;11.10;99.90;;;;;;5003499;28;20389;-75
2023/04/19 11:01:49;;;;;;;2.35;1.23;;;11.10;99.90;;;;;;5002912;28;20045;-76
2023/04/19 11:04:16;;;;;;;1.38;0.77;;;11.20;99.90;;;;;;5004652;28;20064;-76
2023/04/19 11:07:03;;;;;;;1.50;0.65;;;11.20;99.90;;;;;;5002725;28;20045;-75
2023/04/19 11:09:41;;;;;;;3.35;1.20;;;11.20;99.90;;;;;;5002209;28;20435;-77
2023/04/19 11:12:10;;;;;;;0.57;0.32;;;11.30;99.90;;;;;;5003056;28;20116;-74
2023/04/19 11:14:43;;;;;;;1.55;0.88;;;11.40;99.90;;;;;;4986144;28;20128;-76
2023/04/19 11:17:26;;;;;;;1.52;0.60;;;11.40;99.90;;;;;;5004096;28;20509;-77
2023/04/19 11:20:00;;;;;;;1.75;0.50;;;11.40;99.90;;;;;;5004147;28;20045;-76
2023/04/19 11:22:36;;;;;;;2.40;0.88;;;11.40;99.90;;;;;;5002208;28;20049;-76
2023/04/19 11:25:09;;;;;;;0.45;0.45;;;11.40;99.90;;;;;;5002702;28;20681;-77
2023/04/19 11:27:34;;;;;;;;;;;11.40;99.90;;;;;;4985906;28;20057;-76
2023/04/19 11:30:12;;;;;;;0.52;0.40;;;11.40;99.90;;;;;;4985672;28;19921;-77
2023/04/19 11:32:45;;;;;;;4.25;1.58;;;11.50;99.90;;;;;;5001622;28;20094;-75
2023/04/19 11:35:11;;;;;;;1.27;0.50;;;11.50;99.90;;;;;;5003572;28;20411;-76
2023/04/19 11:37:38;;;;;;;1.65;1.00;;;11.60;99.90;;;;;;5004285;28;20042;-76
2023/04/19 11:40:07;;;;;;;1.38;0.70;;;11.60;99.90;;;;;;5004378;28;20049;-76
2023/04/19 11:42:32;;;;;;;1.05;0.70;;;11.60;99.90;;;;;;5002661;28;20052;-76
2023/04/19 11:44:58;;;;;;;0.88;0.52;;;11.60;99.90;;;;;;5002418;28;20038;-74
2023/04/19 11:47:25;;;;;;;1.67;0.63;;;11.60;99.90;;;;;;4986543;28;20045;-75
2023/04/19 11:49:51;;;;;;;0.82;0.52;;;11.70;99.90;;;;;;5003984;28;20149;-76
2023/04/19 11:52:24;;;;;;;6.25;0.95;;;11.70;99.90;;;;;;5003933;28;20551;-74
2023/04/19 11:54:53;;;;;;;0.77;0.68;;;11.70;99.90;;;;;;5002792;28;20042;-78
2023/04/19 11:57:29;;;;;;;1.05;0.63;;;11.70;99.90;;;;;;5002686;28;20080;-77
2023/04/19 12:00:29;;;;;;;0.63;0.60;;;11.70;99.90;;;;;;5003421;28;20034;-76
2023/04/19 12:02:55;;;;;;;1.23;0.73;;;11.70;99.90;;;;;;5002193;28;20054;-76
2023/04/19 12:05:22;;;;;;;0.90;0.70;;;11.70;99.90;;;;;;5003845;28;20485;-76
2023/04/19 12:08:17;;;;;;;0.40;0.40;;;11.70;99.90;;;;;;5001620;28;20133;-80
2023/04/19 12:10:56;;;;;;;0.98;0.68;;;11.70;99.90;;;;;;4988877;28;20132;-76
2023/04/19 12:13:23;;;;;;;0.90;0.63;;;11.70;99.90;;;;;;5001883;28;20041;-75
2023/04/19 12:15:49;;;;;;;2.22;0.70;;;11.70;99.90;;;;;;4998514;28;20090;-77
2023/04/19 12:18:14;;;;;;;2.67;0.63;;;11.70;99.90;;;;;;5003849;28;20045;-77
2023/04/19 12:20:45;;;;;;;0.98;0.60;;;11.70;99.90;;;;;;5000878;28;20088;-77
2023/04/19 12:23:14;;;;;;;1.10;0.60;;;11.70;99.90;;;;;;5003853;28;20049;-75
2023/04/19 12:25:42;;;;;;;1.25;0.73;;;11.70;99.90;;;;;;5003463;28;20046;-76
2023/04/19 12:28:08;;;;;;;1.13;1.00;;;11.70;99.90;;;;;;5002090;28;20081;-77
2023/04/19 12:30:36;;;;;;;1.05;0.70;;;11.70;99.90;;;;;;5002588;28;20033;-78
2023/04/19 12:33:02;;;;;;;7.85;0.95;;;11.70;99.90;;;;;;5003138;28;20034;-77
2023/04/19 12:35:28;;;;;;;1.70;0.60;;;11.70;99.90;;;;;;5002535;28;20121;-77
2023/04/19 12:37:55;;;;;;;1.73;0.95;;;11.80;99.90;;;;;;5001932;28;20046;-77
2023/04/19 12:40:22;;;;;;;1.50;0.80;;;11.80;99.90;;;;;;5002274;28;20124;-77
2023/04/19 12:42:48;;;;;;;3.17;0.77;;;11.80;99.90;;;;;;5000419;28;20042;-76
2023/04/19 12:45:14;;;;;;;2.00;1.00;;;11.80;99.90;;;;;;5000556;28;20392;-75
2023/04/19 12:47:40;;;;;;;2.40;0.90;;;11.80;99.90;;;;;;5002729;28;20034;-75
2023/04/19 12:50:07;;;;;;;1.48;0.80;;;11.80;99.90;;;;;;5001672;28;20096;-74
2023/04/19 12:52:32;;;;;;;2.72;1.55;;;11.80;99.90;;;;;;5000995;28;20544;-74
2023/04/19 12:54:58;;;;;;;2.47;1.33;;;11.70;99.90;;;;;;5001695;28;20075;-74